Pagina principale
METAR-TAF:

METAR-TAF

Aeroporti :

Berlin, New Hampshire, Stati Uniti

latitudine: 44-34-34N, longitudine: 071-10-43W, altezza: 353 m

Osservazione

Il bollettino è stato emesso 31 minuti fa, alle 22:52 UTC
Vento 4 kt da direzioni variabili con raffiche fino a 19 kt
Temperature -7°C
Umidità 67%
Pressione 1013 hPa
Visibilità: 8.0 km
Cielo coperto ad un'altezza di 2500 ft
neve debole

METAR: KBML 182252Z AUTO VRB04G19KT 5SM -SN OVC025 M07/M12 A2990 RMK AO2 SNB35 SLP148 P0000 T10721117

Ora: 18:23 (23:23 UTC)


TAF: mancante

Osservazioni e previsioni meteorologiche di più di 4000 aeroporti (messaggi METAR e TAF).

Le stazioni disponibili sono rappresentate dai dischi gialli e rossi sulla carta.

Puntare il mouse per vedere il nome della stazione.

Clicca sopra per visualizzare le osservazioni e previsioni meteorologiche.

Per cambiare la mappa : fare clic sui pulsanti verdi con una croce nera per ingrandire, il pulsante verde con un trattino per diminuire, o sulla freccia verde per le mappe adiacenti.


METAR-TAF: